Time;durP1;ratioP1;P1;durP2;ratioP2;P2;SDS_P1;SDS_P2;PMS_P1;PMS_P2;Temp;Humidity;BMP_temperature;BMP_pressure;BME280_temperature;BME280_humidity;BME280_pressure;Samples;Min_cycle;Max_cycle;Signal;HPM_P1;HPM_P2
2022/12/18 00:01:58;;;;;;;32.53;16.17;;;;;;;;;;5011215;28;20630;-80
2022/12/18 00:04:27;;;;;;;33.97;16.07;;;;;;;;;;5011772;28;20613;-80
2022/12/18 00:06:55;;;;;;;28.33;17.57;;;;;;;;;;5011071;28;20606;-80
2022/12/18 00:09:22;;;;;;;29.13;15.50;;;;;;;;;;5011356;28;20211;-80
2022/12/18 00:11:49;;;;;;;26.97;16.00;;;;;;;;;;5011562;28;20250;-80
2022/12/18 00:14:16;;;;;;;24.07;14.43;;;;;;;;;;5015355;28;20206;-80
2022/12/18 00:16:44;;;;;;;35.10;16.50;;;;;;;;;;5016702;28;20231;-80
2022/12/18 00:19:12;;;;;;;26.67;14.07;;;;;;;;;;5015643;28;20242;-80
2022/12/18 00:21:39;;;;;;;22.67;14.70;;;;;;;;;;5014791;28;20253;-80
2022/12/18 00:24:08;;;;;;;29.07;15.10;;;;;;;;;;5015471;28;20212;-80
2022/12/18 00:26:36;;;;;;;25.53;15.23;;;;;;;;;;5014675;28;20239;-80
2022/12/18 00:29:04;;;;;;;31.33;15.47;;;;;;;;;;5015099;28;20203;-80
2022/12/18 00:31:31;;;;;;;23.93;16.47;;;;;;;;;;5014779;28;20238;-80
2022/12/18 00:33:59;;;;;;;27.33;16.40;;;;;;;;;;5015681;28;20199;-80
2022/12/18 00:36:26;;;;;;;26.67;15.77;;;;;;;;;;5014568;28;20227;-80
2022/12/18 00:38:54;;;;;;;31.43;15.27;;;;;;;;;;5014854;28;20206;-80
2022/12/18 00:44:09;;;;;;;26.73;14.37;;;;;;;;;;4998090;28;20578;-80
2022/12/18 00:46:36;;;;;;;25.77;14.93;;;;;;;;;;5014336;28;20235;-80
2022/12/18 00:49:03;;;;;;;30.87;16.40;;;;;;;;;;5014488;28;20565;-80
2022/12/18 00:51:30;;;;;;;28.90;15.70;;;;;;;;;;5014475;28;20231;-80
2022/12/18 00:53:58;;;;;;;29.87;14.67;;;;;;;;;;5015010;28;20211;-80
2022/12/18 00:56:26;;;;;;;32.50;15.27;;;;;;;;;;5014175;28;20690;-80
2022/12/18 00:58:53;;;;;;;24.77;15.00;;;;;;;;;;5014442;28;20681;-80
2022/12/18 01:01:20;;;;;;;23.93;14.07;;;;;;;;;;5014283;28;20269;-80
2022/12/18 01:03:47;;;;;;;29.97;16.27;;;;;;;;;;5014927;28;20207;-80
2022/12/18 01:06:15;;;;;;;29.67;15.67;;;;;;;;;;5013488;28;20258;-80
2022/12/18 01:08:42;;;;;;;29.17;16.77;;;;;;;;;;5014649;28;20214;-80
2022/12/18 01:11:10;;;;;;;28.37;15.30;;;;;;;;;;5013799;28;20238;-80
2022/12/18 01:13:39;;;;;;;25.67;15.47;;;;;;;;;;5014582;28;20208;-80
2022/12/18 01:16:06;;;;;;;25.03;14.20;;;;;;;;;;5013793;28;20231;-80
2022/12/18 01:18:33;;;;;;;24.80;14.03;;;;;;;;;;5014259;28;20229;-80
2022/12/18 01:21:00;;;;;;;26.97;14.67;;;;;;;;;;5013576;28;20331;-80
2022/12/18 01:23:27;;;;;;;21.43;12.57;;;;;;;;;;5013718;28;20231;-80
2022/12/18 01:25:54;;;;;;;24.07;14.00;;;;;;;;;;5013895;28;20239;-80
2022/12/18 01:28:21;;;;;;;25.03;15.07;;;;;;;;;;5013584;28;20207;-80
2022/12/18 01:30:50;;;;;;;26.87;14.47;;;;;;;;;;5013641;28;20266;-80
2022/12/18 01:33:17;;;;;;;24.67;13.83;;;;;;;;;;5013869;28;20203;-80
2022/12/18 01:35:44;;;;;;;25.10;12.97;;;;;;;;;;5013130;28;20241;-80
2022/12/18 01:38:11;;;;;;;20.00;13.17;;;;;;;;;;5013663;28;20210;-80
2022/12/18 01:40:38;;;;;;;28.00;14.60;;;;;;;;;;5013702;28;20231;-80
2022/12/18 01:43:05;;;;;;;24.43;13.37;;;;;;;;;;5013768;28;20206;-80
2022/12/18 01:45:33;;;;;;;26.67;13.37;;;;;;;;;;5013098;28;20228;-80
2022/12/18 01:48:02;;;;;;;25.40;14.57;;;;;;;;;;5013592;28;20220;-80
2022/12/18 01:50:32;;;;;;;24.70;13.77;;;;;;;;;;5013213;28;20233;-80
2022/12/18 01:53:00;;;;;;;23.07;13.53;;;;;;;;;;5014045;28;20240;-80
2022/12/18 01:55:29;;;;;;;25.20;15.40;;;;;;;;;;5013321;28;20232;-80
2022/12/18 01:57:58;;;;;;;21.83;12.60;;;;;;;;;;5013520;28;20199;-79
2022/12/18 02:00:26;;;;;;;26.70;14.83;;;;;;;;;;5007673;28;20628;-79
2022/12/18 02:02:53;;;;;;;18.67;14.07;;;;;;;;;;5012142;28;20664;-80
2022/12/18 02:05:25;;;;;;;20.57;13.47;;;;;;;;;;5012556;28;20207;-80
2022/12/18 02:07:57;;;;;;;18.37;12.37;;;;;;;;;;5010294;28;20256;-80
2022/12/18 02:10:27;;;;;;;18.43;11.63;;;;;;;;;;5011714;28;20230;-79
2022/12/18 02:12:58;;;;;;;19.03;12.47;;;;;;;;;;5013165;28;20224;-79
2022/12/18 02:15:28;;;;;;;23.90;12.87;;;;;;;;;;5012760;28;20240;-79
2022/12/18 02:17:58;;;;;;;25.47;14.33;;;;;;;;;;5013359;28;20291;-79
2022/12/18 02:20:29;;;;;;;20.70;12.67;;;;;;;;;;5012859;28;20241;-80
2022/12/18 02:23:07;;;;;;;18.30;12.63;;;;;;;;;;5013271;28;20209;-79
2022/12/18 02:25:42;;;;;;;23.43;13.37;;;;;;;;;;5012606;28;20244;-79
2022/12/18 02:28:13;;;;;;;16.70;11.33;;;;;;;;;;5012593;28;20204;-79
2022/12/18 02:30:41;;;;;;;26.10;14.60;;;;;;;;;;5012597;28;20232;-79
2022/12/18 02:33:09;;;;;;;19.30;12.87;;;;;;;;;;5012709;28;20206;-79
2022/12/18 02:35:36;;;;;;;24.17;13.80;;;;;;;;;;5011571;28;20241;-79
2022/12/18 02:38:04;;;;;;;18.13;12.80;;;;;;;;;;5012814;28;20555;-79
2022/12/18 02:40:31;;;;;;;19.50;13.43;;;;;;;;;;5012325;28;20250;-79
2022/12/18 02:43:03;;;;;;;18.70;11.80;;;;;;;;;;5013023;28;20212;-79
2022/12/18 02:45:32;;;;;;;16.27;11.33;;;;;;;;;;5012275;28;20234;-79
2022/12/18 02:47:59;;;;;;;26.27;13.43;;;;;;;;;;5012720;28;20219;-79
2022/12/18 02:50:30;;;;;;;24.27;13.47;;;;;;;;;;5012092;28;20236;-79
2022/12/18 02:53:03;;;;;;;25.57;14.23;;;;;;;;;;5012826;28;20214;-79
2022/12/18 02:55:35;;;;;;;19.50;11.90;;;;;;;;;;5012170;28;20235;-79
2022/12/18 02:58:05;;;;;;;19.57;11.93;;;;;;;;;;5012527;28;20219;-79
2022/12/18 03:00:38;;;;;;;18.13;12.30;;;;;;;;;;5012080;28;20232;-79
2022/12/18 03:03:07;;;;;;;25.07;12.87;;;;;;;;;;5012737;28;20239;-79
2022/12/18 03:05:36;;;;;;;19.87;12.53;;;;;;;;;;5011727;28;20236;-79
2022/12/18 03:08:05;;;;;;;21.47;13.90;;;;;;;;;;5012596;28;20212;-79
2022/12/18 03:10:35;;;;;;;18.60;13.23;;;;;;;;;;5011750;28;20705;-79
2022/12/18 03:13:05;;;;;;;20.57;11.33;;;;;;;;;;5012704;28;20204;-79
2022/12/18 03:15:36;;;;;;;26.73;13.53;;;;;;;;;;5011549;28;20239;-79
2022/12/18 03:18:05;;;;;;;17.37;13.70;;;;;;;;;;5012042;28;20210;-80
2022/12/18 03:20:34;;;;;;;19.90;13.03;;;;;;;;;;5011378;28;20247;-79
2022/12/18 03:23:04;;;;;;;18.57;14.10;;;;;;;;;;5012179;28;20205;-79
2022/12/18 03:25:32;;;;;;;21.93;13.50;;;;;;;;;;5011584;28;20643;-79
2022/12/18 03:28:01;;;;;;;20.67;13.63;;;;;;;;;;5011897;28;20208;-79
2022/12/18 03:30:29;;;;;;;21.77;12.43;;;;;;;;;;5011193;28;20701;-79
2022/12/18 03:33:03;;;;;;;22.07;13.37;;;;;;;;;;5012193;28;20203;-79
2022/12/18 03:35:32;;;;;;;27.50;12.73;;;;;;;;;;5010815;28;20289;-79
2022/12/18 03:38:00;;;;;;;21.20;12.27;;;;;;;;;;5008498;28;20207;-79
2022/12/18 03:40:31;;;;;;;21.93;13.40;;;;;;;;;;5011253;28;20246;-79
2022/12/18 03:43:01;;;;;;;17.83;10.87;;;;;;;;;;4999497;28;20200;-79
2022/12/18 03:45:30;;;;;;;25.40;13.03;;;;;;;;;;4991764;28;20241;-79
2022/12/18 03:48:03;;;;;;;18.10;12.57;;;;;;;;;;4992587;28;20235;-79
2022/12/18 03:50:36;;;;;;;27.63;12.97;;;;;;;;;;4991830;28;20235;-79
2022/12/18 03:53:08;;;;;;;21.67;12.30;;;;;;;;;;4992352;28;20301;-79
2022/12/18 03:55:36;;;;;;;16.60;13.07;;;;;;;;;;5008148;28;20228;-79
2022/12/18 03:58:04;;;;;;;19.27;11.93;;;;;;;;;;5011546;28;20203;-79
2022/12/18 04:00:32;;;;;;;24.47;13.47;;;;;;;;;;5011402;28;20247;-79
2022/12/18 04:03:02;;;;;;;24.23;12.53;;;;;;;;;;5011819;28;20209;-79
2022/12/18 04:05:30;;;;;;;20.80;13.53;;;;;;;;;;5011273;28;20240;-79
2022/12/18 04:07:57;;;;;;;22.47;13.50;;;;;;;;;;5011491;28;20577;-79
2022/12/18 04:10:24;;;;;;;19.30;12.53;;;;;;;;;;5011172;28;20238;-79
2022/12/18 04:12:51;;;;;;;22.70;13.77;;;;;;;;;;5011671;28;20220;-79
2022/12/18 04:15:19;;;;;;;27.10;11.90;;;;;;;;;;5011142;28;20201;-79
2022/12/18 04:17:49;;;;;;;19.73;12.80;;;;;;;;;;5011218;28;20205;-79
2022/12/18 04:20:17;;;;;;;17.70;12.37;;;;;;;;;;5011171;28;20199;-79
2022/12/18 04:22:44;;;;;;;21.03;13.10;;;;;;;;;;5012053;28;20602;-79
2022/12/18 04:25:12;;;;;;;17.80;11.57;;;;;;;;;;5010967;28;20212;-79
2022/12/18 04:27:39;;;;;;;23.27;13.13;;;;;;;;;;5011537;28;20208;-79
2022/12/18 04:30:06;;;;;;;20.23;12.03;;;;;;;;;;5011081;28;20315;-79
2022/12/18 04:32:34;;;;;;;21.67;12.23;;;;;;;;;;5011203;28;20223;-79
2022/12/18 04:35:03;;;;;;;16.47;12.07;;;;;;;;;;5013446;28;20208;-79
2022/12/18 04:37:32;;;;;;;25.80;14.23;;;;;;;;;;5014224;28;20239;-79
2022/12/18 04:39:59;;;;;;;23.83;12.33;;;;;;;;;;5010998;28;20204;-79
2022/12/18 04:42:26;;;;;;;18.47;12.53;;;;;;;;;;5010236;28;20226;-79
2022/12/18 04:44:53;;;;;;;24.33;12.93;;;;;;;;;;5011700;28;20208;-79
2022/12/18 04:47:20;;;;;;;20.57;11.63;;;;;;;;;;5010831;28;20242;-79
2022/12/18 04:49:47;;;;;;;15.70;11.83;;;;;;;;;;5010784;28;20211;-79
2022/12/18 04:52:14;;;;;;;24.87;13.03;;;;;;;;;;5010900;28;20239;-79
2022/12/18 04:54:43;;;;;;;23.63;14.17;;;;;;;;;;5011215;28;20203;-79
2022/12/18 04:57:10;;;;;;;21.47;12.20;;;;;;;;;;5010697;28;20228;-79
2022/12/18 04:59:37;;;;;;;17.40;12.33;;;;;;;;;;5014248;28;20222;-79
2022/12/18 05:02:04;;;;;;;20.60;12.47;;;;;;;;;;5014020;28;20737;-79
2022/12/18 05:04:31;;;;;;;19.67;12.97;;;;;;;;;;5014759;28;20215;-79
2022/12/18 05:06:59;;;;;;;22.47;13.03;;;;;;;;;;5013439;28;20727;-79
2022/12/18 05:09:26;;;;;;;21.23;12.63;;;;;;;;;;5014015;28;20210;-79
2022/12/18 05:11:54;;;;;;;20.10;12.27;;;;;;;;;;5013920;28;20235;-79
2022/12/18 05:14:21;;;;;;;20.83;11.40;;;;;;;;;;5014440;28;20254;-79
2022/12/18 05:16:48;;;;;;;23.33;12.57;;;;;;;;;;5014132;28;20231;-79
2022/12/18 05:19:15;;;;;;;22.97;13.23;;;;;;;;;;5014211;28;20215;-79
2022/12/18 05:21:42;;;;;;;21.17;14.27;;;;;;;;;;5013966;28;20235;-79
2022/12/18 05:24:09;;;;;;;18.87;12.67;;;;;;;;;;5014257;28;20211;-79
2022/12/18 05:26:36;;;;;;;17.37;12.53;;;;;;;;;;5013789;28;20235;-79
2022/12/18 05:29:05;;;;;;;22.63;13.03;;;;;;;;;;5014229;28;20200;-79
2022/12/18 05:31:32;;;;;;;19.87;13.50;;;;;;;;;;5013424;28;20235;-79
2022/12/18 05:33:59;;;;;;;16.53;11.10;;;;;;;;;;5014115;28;20212;-79
2022/12/18 05:36:26;;;;;;;13.93;11.17;;;;;;;;;;5013917;28;20243;-79
2022/12/18 05:38:53;;;;;;;20.47;12.23;;;;;;;;;;5014118;28;20212;-79
2022/12/18 05:41:20;;;;;;;19.93;12.53;;;;;;;;;;5013782;28;20239;-79
2022/12/18 05:43:47;;;;;;;23.63;12.57;;;;;;;;;;5014677;28;20207;-79
2022/12/18 05:46:17;;;;;;;16.80;11.30;;;;;;;;;;5013688;28;20239;-79
2022/12/18 05:48:44;;;;;;;20.03;12.60;;;;;;;;;;5020192;28;20211;-79
2022/12/18 05:51:14;;;;;;;24.43;12.63;;;;;;;;;;5013520;28;20235;-79
2022/12/18 05:53:41;;;;;;;19.33;11.23;;;;;;;;;;5014107;28;20226;-79
2022/12/18 05:56:09;;;;;;;18.10;13.03;;;;;;;;;;5013585;28;20232;-79
2022/12/18 05:58:36;;;;;;;18.27;11.53;;;;;;;;;;5013678;28;20215;-79
2022/12/18 06:01:08;;;;;;;19.80;11.90;;;;;;;;;;5013624;28;20246;-79
2022/12/18 06:03:36;;;;;;;27.33;12.20;;;;;;;;;;5013598;28;20207;-79
2022/12/18 06:06:03;;;;;;;17.77;11.10;;;;;;;;;;5013457;28;20714;-79
2022/12/18 06:08:30;;;;;;;18.70;12.57;;;;;;;;;;5012533;28;20204;-78
2022/12/18 06:10:57;;;;;;;15.80;11.07;;;;;;;;;;5013218;28;20239;-78
2022/12/18 06:13:24;;;;;;;20.03;11.33;;;;;;;;;;5013408;28;20211;-79
2022/12/18 06:15:51;;;;;;;21.23;13.90;;;;;;;;;;5012993;28;20239;-79
2022/12/18 06:18:18;;;;;;;16.27;9.97;;;;;;;;;;5013120;28;20203;-78
2022/12/18 06:20:55;;;;;;;17.83;12.03;;;;;;;;;;5012755;28;20721;-78
2022/12/18 06:23:22;;;;;;;27.10;14.20;;;;;;;;;;5013580;28;20206;-79
2022/12/18 06:25:49;;;;;;;17.93;12.00;;;;;;;;;;5012906;28;20238;-79
2022/12/18 06:28:16;;;;;;;26.07;12.77;;;;;;;;;;5012728;28;20200;-79
2022/12/18 06:30:45;;;;;;;26.60;13.53;;;;;;;;;;5012844;28;20239;-79
2022/12/18 06:33:12;;;;;;;24.07;14.33;;;;;;;;;;5012878;28;20255;-79
2022/12/18 06:35:39;;;;;;;24.13;15.40;;;;;;;;;;5012511;28;20258;-78
2022/12/18 06:38:07;;;;;;;27.17;15.43;;;;;;;;;;5012645;28;20567;-79
2022/12/18 06:40:34;;;;;;;23.63;14.57;;;;;;;;;;5012372;28;20242;-79
2022/12/18 06:43:01;;;;;;;27.60;15.73;;;;;;;;;;5012656;28;20203;-79
2022/12/18 06:45:29;;;;;;;20.13;13.30;;;;;;;;;;5012313;28;20242;-76
2022/12/18 06:47:56;;;;;;;26.07;16.50;;;;;;;;;;5012331;28;20223;-78
2022/12/18 06:50:23;;;;;;;28.13;16.17;;;;;;;;;;5012516;28;20258;-79
2022/12/18 06:52:50;;;;;;;27.13;15.47;;;;;;;;;;5012870;28;20607;-78
2022/12/18 06:55:19;;;;;;;26.93;15.03;;;;;;;;;;5012163;28;20207;-79
2022/12/18 06:57:46;;;;;;;24.70;14.67;;;;;;;;;;4995089;28;20208;-79
2022/12/18 07:00:13;;;;;;;23.50;14.80;;;;;;;;;;5011966;28;20204;-77
2022/12/18 07:02:41;;;;;;;21.20;14.67;;;;;;;;;;5012785;28;20294;-79
2022/12/18 07:05:08;;;;;;;24.40;13.17;;;;;;;;;;5012120;28;20261;-79
2022/12/18 07:07:35;;;;;;;17.93;12.00;;;;;;;;;;5012012;28;20203;-76
2022/12/18 07:10:02;;;;;;;24.53;13.57;;;;;;;;;;5011596;28;20200;-76
2022/12/18 07:12:31;;;;;;;22.97;14.90;;;;;;;;;;5012195;28;20232;-76
2022/12/18 07:14:58;;;;;;;30.03;16.20;;;;;;;;;;5012384;28;20671;-76
2022/12/18 07:17:25;;;;;;;23.77;14.70;;;;;;;;;;5011423;28;20238;-76
2022/12/18 07:19:52;;;;;;;28.60;15.67;;;;;;;;;;5011902;28;20211;-76
2022/12/18 07:22:19;;;;;;;28.43;14.37;;;;;;;;;;5011123;28;20231;-76
2022/12/18 07:24:46;;;;;;;30.03;16.83;;;;;;;;;;5012289;28;20204;-73
2022/12/18 07:27:13;;;;;;;26.00;15.97;;;;;;;;;;5011285;28;20227;-74
2022/12/18 07:29:41;;;;;;;27.57;15.47;;;;;;;;;;5011113;28;20200;-74
2022/12/18 07:32:08;;;;;;;33.07;17.97;;;;;;;;;;5011121;28;20232;-76
2022/12/18 07:34:36;;;;;;;31.77;17.13;;;;;;;;;;5012001;28;20242;-76
2022/12/18 07:37:03;;;;;;;29.30;15.73;;;;;;;;;;5010941;28;20235;-76
2022/12/18 07:39:30;;;;;;;31.10;18.30;;;;;;;;;;5011439;28;20710;-76
2022/12/18 07:44:48;;;;;;;26.53;17.50;;;;;;;;;;5001084;28;20206;-76
2022/12/18 07:47:15;;;;;;;31.33;17.73;;;;;;;;;;5011217;28;20242;-76
2022/12/18 07:49:42;;;;;;;30.93;16.70;;;;;;;;;;5011423;28;20676;-74
2022/12/18 07:52:09;;;;;;;28.53;18.00;;;;;;;;;;5011231;28;20239;-74
2022/12/18 07:54:36;;;;;;;33.53;18.43;;;;;;;;;;5000700;28;20210;-74
2022/12/18 07:57:03;;;;;;;26.90;16.37;;;;;;;;;;4991680;28;20251;-74
2022/12/18 07:59:30;;;;;;;32.40;16.60;;;;;;;;;;4991785;28;20212;-76
2022/12/18 08:01:59;;;;;;;39.57;19.67;;;;;;;;;;4991613;28;20235;-76
2022/12/18 08:04:26;;;;;;;31.00;17.17;;;;;;;;;;4991890;28;20283;-76
2022/12/18 08:06:53;;;;;;;33.63;17.70;;;;;;;;;;4991717;28;20335;-76
2022/12/18 08:09:20;;;;;;;40.77;21.50;;;;;;;;;;4991942;28;20215;-76
2022/12/18 08:11:47;;;;;;;29.77;18.23;;;;;;;;;;5005426;28;20738;-76
2022/12/18 08:14:14;;;;;;;33.47;19.13;;;;;;;;;;5011525;28;20204;-76
2022/12/18 08:16:41;;;;;;;36.43;20.03;;;;;;;;;;5010946;28;20634;-76
2022/12/18 08:19:10;;;;;;;42.17;22.70;;;;;;;;;;5010994;28;20214;-75
2022/12/18 08:21:37;;;;;;;35.70;18.80;;;;;;;;;;5010913;28;20242;-76
2022/12/18 08:24:04;;;;;;;52.03;23.73;;;;;;;;;;5011503;28;20234;-76
2022/12/18 08:26:32;;;;;;;49.67;24.93;;;;;;;;;;5010900;28;20236;-76
2022/12/18 08:29:00;;;;;;;49.17;23.53;;;;;;;;;;5010526;28;20199;-76
2022/12/18 08:31:28;;;;;;;48.83;23.73;;;;;;;;;;5010339;28;20255;-76
2022/12/18 08:33:56;;;;;;;53.07;24.57;;;;;;;;;;5013784;28;20204;-76
2022/12/18 08:36:25;;;;;;;63.50;27.07;;;;;;;;;;5013656;28;20234;-74
2022/12/18 08:38:52;;;;;;;58.33;25.10;;;;;;;;;;5013995;28;20211;-74
2022/12/18 08:41:19;;;;;;;62.30;23.93;;;;;;;;;;5014378;28;20732;-84
2022/12/18 08:46:34;;;;;;;65.00;26.57;;;;;;;;;;5014775;28;20277;-75
2022/12/18 08:49:01;;;;;;;55.20;22.77;;;;;;;;;;5014908;28;20665;-78
2022/12/18 08:51:30;;;;;;;74.20;24.80;;;;;;;;;;5015126;28;20243;-77
2022/12/18 08:53:57;;;;;;;59.03;28.00;;;;;;;;;;5005279;28;20205;-78
2022/12/18 08:56:24;;;;;;;51.57;24.97;;;;;;;;;;4995584;28;20705;-78
2022/12/18 08:58:53;;;;;;;62.30;24.67;;;;;;;;;;5014416;28;20205;-78
2022/12/18 09:01:20;;;;;;;67.70;26.17;;;;;;;;;;5015241;28;20247;-77
2022/12/18 09:03:47;;;;;;;61.60;27.70;;;;;;;;;;5015158;28;20219;-77
2022/12/18 09:06:16;;;;;;;63.73;28.97;;;;;;;;;;5029641;28;20239;-77
2022/12/18 09:08:44;;;;;;;73.80;27.10;;;;;;;;;;5035013;28;20256;-77
2022/12/18 09:11:15;;;;;;;73.90;29.90;;;;;;;;;;5034145;28;20236;-78
2022/12/18 09:13:42;;;;;;;66.87;28.37;;;;;;;;;;5065547;22;20607;-83
2022/12/18 09:16:09;;;;;;;56.57;25.07;;;;;;;;;;5044577;28;20250;-85
2022/12/18 09:18:36;;;;;;;66.37;25.47;;;;;;;;;;5034385;28;20209;-85
2022/12/18 09:21:08;;;;;;;77.47;30.87;;;;;;;;;;5034135;28;20244;-86
2022/12/18 09:23:36;;;;;;;46.90;22.67;;;;;;;;;;5034374;28;20223;-86
2022/12/18 09:26:04;;;;;;;60.23;28.63;;;;;;;;;;5033544;28;20236;-86
2022/12/18 09:28:31;;;;;;;58.43;28.00;;;;;;;;;;5034120;28;20204;-86
2022/12/18 09:30:58;;;;;;;26.73;13.23;;;;;;;;;;5033593;28;20709;-85
2022/12/18 09:33:25;;;;;;;61.33;25.67;;;;;;;;;;5034349;28;20261;-86
2022/12/18 09:35:53;;;;;;;59.30;27.40;;;;;;;;;;5033450;28;20233;-84
2022/12/18 09:38:20;;;;;;;53.10;26.47;;;;;;;;;;5033810;28;20202;-85
2022/12/18 09:40:49;;;;;;;61.70;25.30;;;;;;;;;;5033543;28;20631;-85
2022/12/18 09:43:19;;;;;;;66.83;26.03;;;;;;;;;;5033754;28;20243;-85
2022/12/18 09:45:47;;;;;;;71.90;29.43;;;;;;;;;;5033898;28;20284;-88
2022/12/18 09:48:17;;;;;;;66.03;28.30;;;;;;;;;;5033672;28;20218;-84
2022/12/18 09:50:45;;;;;;;76.60;30.60;;;;;;;;;;5034304;28;20254;-88
2022/12/18 09:53:16;;;;;;;59.27;27.67;;;;;;;;;;5034781;28;20253;-83
2022/12/18 09:55:44;;;;;;;65.83;28.30;;;;;;;;;;5033451;28;20608;-83
2022/12/18 09:58:16;;;;;;;60.03;27.23;;;;;;;;;;5033513;28;20235;-83
2022/12/18 10:00:45;;;;;;;53.50;25.50;;;;;;;;;;5033187;28;20240;-83
2022/12/18 10:03:13;;;;;;;86.30;31.63;;;;;;;;;;5030105;28;20215;-83
2022/12/18 10:05:44;;;;;;;71.10;28.93;;;;;;;;;;5013460;28;20667;-85
2022/12/18 10:08:15;;;;;;;62.17;25.53;;;;;;;;;;5013668;28;20589;-84
2022/12/18 10:10:45;;;;;;;56.00;24.60;;;;;;;;;;5013346;28;20245;-84
2022/12/18 10:13:17;;;;;;;65.50;27.53;;;;;;;;;;5013357;28;20234;-85
2022/12/18 10:15:53;;;;;;;62.20;25.17;;;;;;;;;;5013125;28;20239;-85
2022/12/18 10:18:24;;;;;;;52.43;22.57;;;;;;;;;;5014316;28;20543;-86
2022/12/18 10:20:54;;;;;;;25.83;13.63;;;;;;;;;;5032740;28;20231;-86
2022/12/18 10:23:25;;;;;;;30.40;16.80;;;;;;;;;;5032724;28;20592;-86
2022/12/18 10:25:55;;;;;;;32.60;15.43;;;;;;;;;;5032744;28;20235;-86
2022/12/18 10:28:23;;;;;;;45.10;20.50;;;;;;;;;;5032840;28;20659;-84
2022/12/18 10:30:52;;;;;;;103.43;25.80;;;;;;;;;;5032460;28;20245;-84
2022/12/18 10:33:20;;;;;;;51.13;22.13;;;;;;;;;;5033003;28;20239;-83
2022/12/18 10:35:49;;;;;;;49.43;21.63;;;;;;;;;;5032321;28;20238;-83
2022/12/18 10:38:24;;;;;;;41.80;15.97;;;;;;;;;;5032915;28;20207;-83
2022/12/18 10:40:53;;;;;;;58.33;23.77;;;;;;;;;;5032440;28;20309;-82
2022/12/18 10:43:24;;;;;;;43.00;18.73;;;;;;;;;;5032729;28;20218;-82
2022/12/18 10:46:03;;;;;;;34.90;18.87;;;;;;;;;;5032461;28;20234;-83
2022/12/18 10:48:31;;;;;;;13.70;9.07;;;;;;;;;;5032670;28;20201;-83
2022/12/18 10:50:58;;;;;;;40.40;18.40;;;;;;;;;;5032376;28;20236;-82
2022/12/18 10:53:27;;;;;;;28.97;13.80;;;;;;;;;;5032576;28;20237;-83
2022/12/18 10:55:56;;;;;;;39.83;19.83;;;;;;;;;;5031516;28;20235;-82
2022/12/18 10:58:25;;;;;;;40.40;19.43;;;;;;;;;;5032590;28;20199;-83
2022/12/18 11:01:10;;;;;;;33.40;15.63;;;;;;;;;;5027021;28;20227;-83
2022/12/18 11:03:38;;;;;;;44.33;20.67;;;;;;;;;;5033608;28;20722;-83
2022/12/18 11:06:07;;;;;;;52.80;24.17;;;;;;;;;;5048272;28;20237;-83
2022/12/18 11:08:34;;;;;;;50.60;21.80;;;;;;;;;;5054612;28;20225;-86
2022/12/18 11:11:02;;;;;;;14.93;9.07;;;;;;;;;;5051958;28;20237;-83
2022/12/18 11:13:29;;;;;;;52.60;22.77;;;;;;;;;;5033805;28;20230;-83
2022/12/18 11:15:57;;;;;;;54.87;22.87;;;;;;;;;;5046102;28;20696;-83
2022/12/18 11:18:27;;;;;;;48.00;21.30;;;;;;;;;;5071545;28;20205;-83
2022/12/18 11:20:55;;;;;;;57.70;23.30;;;;;;;;;;5071089;28;20623;-83
2022/12/18 11:23:24;;;;;;;35.77;15.97;;;;;;;;;;5070857;28;20283;-83
2022/12/18 11:25:53;;;;;;;54.67;21.33;;;;;;;;;;5031138;28;20246;-83
2022/12/18 11:28:35;;;;;;;14.97;10.00;;;;;;;;;;5031709;28;20207;-83
2022/12/18 11:31:14;;;;;;;42.33;20.73;;;;;;;;;;5031141;28;20290;-84
2022/12/18 11:33:43;;;;;;;45.07;19.83;;;;;;;;;;5041711;28;20225;-82
2022/12/18 11:36:11;;;;;;;49.47;20.07;;;;;;;;;;5051075;28;20241;-81
2022/12/18 11:38:39;;;;;;;42.07;18.43;;;;;;;;;;5050849;28;20212;-81
2022/12/18 11:41:15;;;;;;;52.43;20.53;;;;;;;;;;5051171;28;20231;-82
2022/12/18 11:43:44;;;;;;;43.73;19.13;;;;;;;;;;5051249;28;20226;-82
2022/12/18 11:46:14;;;;;;;51.43;20.97;;;;;;;;;;5051466;28;20237;-82
2022/12/18 11:48:44;;;;;;;47.57;19.97;;;;;;;;;;5050960;28;20206;-83
2022/12/18 11:51:15;;;;;;;41.10;17.37;;;;;;;;;;5050852;28;20230;-82
2022/12/18 11:53:42;;;;;;;30.73;16.97;;;;;;;;;;5050343;28;20231;-83
2022/12/18 11:56:27;;;;;;;49.33;20.83;;;;;;;;;;5050669;28;20242;-82
2022/12/18 11:58:59;;;;;;;55.80;22.20;;;;;;;;;;5051024;28;20247;-82
2022/12/18 12:01:37;;;;;;;46.50;20.73;;;;;;;;;;5050382;28;20234;-83
2022/12/18 12:04:22;;;;;;;27.73;14.43;;;;;;;;;;5051102;28;20230;-82
2022/12/18 12:06:52;;;;;;;32.07;16.90;;;;;;;;;;5051258;28;20233;-85
2022/12/18 12:09:22;;;;;;;29.23;13.40;;;;;;;;;;5055245;28;20200;-83
2022/12/18 12:11:56;;;;;;;45.00;20.50;;;;;;;;;;5054411;28;20239;-81
2022/12/18 12:14:38;;;;;;;47.33;20.23;;;;;;;;;;5054542;28;20706;-83
2022/12/18 12:17:07;;;;;;;51.50;22.20;;;;;;;;;;5054358;28;20739;-83
2022/12/18 12:19:40;;;;;;;36.30;13.73;;;;;;;;;;5054690;28;20294;-83
2022/12/18 12:22:11;;;;;;;35.63;18.40;;;;;;;;;;5054021;28;20285;-83
2022/12/18 12:24:41;;;;;;;34.63;16.53;;;;;;;;;;5054784;28;20232;-83
2022/12/18 12:27:13;;;;;;;44.30;18.23;;;;;;;;;;5051200;28;20238;-83
2022/12/18 12:29:47;;;;;;;51.63;21.13;;;;;;;;;;5060282;28;20208;-83
2022/12/18 12:32:23;;;;;;;46.80;19.70;;;;;;;;;;5058646;28;20234;-83
2022/12/18 12:34:56;;;;;;;47.70;20.43;;;;;;;;;;5054461;28;20240;-83
2022/12/18 12:37:27;;;;;;;51.43;21.27;;;;;;;;;;5054248;28;20240;-83
2022/12/18 12:39:56;;;;;;;59.13;22.27;;;;;;;;;;5054766;28;20193;-84
2022/12/18 12:45:18;;;;;;;42.23;19.23;;;;;;;;;;5059782;28;20200;-83
2022/12/18 12:47:47;;;;;;;47.80;18.00;;;;;;;;;;5056174;28;20208;-83
2022/12/18 12:50:18;;;;;;;45.10;22.67;;;;;;;;;;5054412;28;20208;-83
2022/12/18 12:52:46;;;;;;;47.43;20.10;;;;;;;;;;5054514;28;20233;-83
2022/12/18 12:55:17;;;;;;;44.07;20.47;;;;;;;;;;5053949;28;20204;-83
2022/12/18 12:57:47;;;;;;;46.73;21.57;;;;;;;;;;5054240;28;20190;-84
2022/12/18 13:00:16;;;;;;;43.73;20.13;;;;;;;;;;5053981;28;20248;-83
2022/12/18 13:02:46;;;;;;;42.30;20.33;;;;;;;;;;5054350;28;20214;-83
2022/12/18 13:05:18;;;;;;;42.30;20.07;;;;;;;;;;5053946;28;20201;-83
2022/12/18 13:07:48;;;;;;;38.17;18.70;;;;;;;;;;5054357;28;20229;-83
2022/12/18 13:10:25;;;;;;;44.50;18.97;;;;;;;;;;5054130;28;20204;-83
2022/12/18 13:12:58;;;;;;;24.73;12.37;;;;;;;;;;5054146;28;20219;-83
2022/12/18 13:15:27;;;;;;;46.47;19.37;;;;;;;;;;5054169;28;20576;-84
2022/12/18 13:18:22;;;;;;;51.93;21.50;;;;;;;;;;5053408;28;20685;-83
2022/12/18 13:20:51;;;;;;;32.70;16.67;;;;;;;;;;5018066;28;20240;-83
2022/12/18 13:23:27;;;;;;;43.50;18.67;;;;;;;;;;5053536;28;20740;-87
2022/12/18 13:25:55;;;;;;;44.73;20.07;;;;;;;;;;5053404;28;20262;-84
2022/12/18 13:28:24;;;;;;;54.43;22.03;;;;;;;;;;5053333;28;20545;-84
2022/12/18 13:30:55;;;;;;;45.57;20.63;;;;;;;;;;5053362;28;20236;-85
2022/12/18 13:33:38;;;;;;;26.83;12.60;;;;;;;;;;5053662;28;20712;-85
2022/12/18 13:36:14;;;;;;;40.37;19.00;;;;;;;;;;5053398;28;20265;-83
2022/12/18 13:38:42;;;;;;;45.20;18.90;;;;;;;;;;5054760;28;20206;-85
2022/12/18 13:41:24;;;;;;;48.27;19.77;;;;;;;;;;5053271;28;20230;-85
2022/12/18 13:43:51;;;;;;;38.83;18.57;;;;;;;;;;5053901;28;20234;-84
2022/12/18 13:46:23;;;;;;;39.27;17.77;;;;;;;;;;5053024;28;20238;-84
2022/12/18 13:48:52;;;;;;;43.30;19.20;;;;;;;;;;5053485;28;20197;-84
2022/12/18 13:51:21;;;;;;;44.43;19.30;;;;;;;;;;5053060;28;20234;-84
2022/12/18 13:53:51;;;;;;;40.60;18.03;;;;;;;;;;5053410;28;20226;-84
2022/12/18 13:56:19;;;;;;;44.53;18.43;;;;;;;;;;5052440;28;20244;-84
2022/12/18 13:58:46;;;;;;;34.07;16.60;;;;;;;;;;5053000;28;20249;-84
2022/12/18 14:01:23;;;;;;;30.23;15.60;;;;;;;;;;5052875;28;20686;-84
2022/12/18 14:03:50;;;;;;;35.83;17.17;;;;;;;;;;5053106;28;20268;-84
2022/12/18 14:06:18;;;;;;;37.33;18.30;;;;;;;;;;5052446;28;20674;-84
2022/12/18 14:08:47;;;;;;;34.40;17.40;;;;;;;;;;5052652;28;20209;-83
2022/12/18 14:11:20;;;;;;;39.10;18.97;;;;;;;;;;5052373;28;20316;-84
2022/12/18 14:13:47;;;;;;;38.53;19.37;;;;;;;;;;5052297;28;20236;-82
2022/12/18 14:16:16;;;;;;;41.40;18.57;;;;;;;;;;5051319;28;20311;-82
2022/12/18 14:18:45;;;;;;;42.47;18.00;;;;;;;;;;5051866;28;20563;-81
2022/12/18 14:21:19;;;;;;;38.83;18.30;;;;;;;;;;5044733;28;20226;-83
2022/12/18 14:23:48;;;;;;;36.40;17.07;;;;;;;;;;5051174;28;20229;-82
2022/12/18 14:26:37;;;;;;;34.53;17.37;;;;;;;;;;5028384;28;20696;-82
2022/12/18 14:29:19;;;;;;;28.53;15.50;;;;;;;;;;5011239;28;20207;-84
2022/12/18 14:32:05;;;;;;;36.40;16.93;;;;;;;;;;5013165;28;20245;-84
2022/12/18 14:34:32;;;;;;;35.53;18.43;;;;;;;;;;5029372;28;20230;-83
2022/12/18 14:36:59;;;;;;;34.27;16.10;;;;;;;;;;5063699;28;20598;-83
2022/12/18 14:39:28;;;;;;;35.93;16.90;;;;;;;;;;5057347;28;20217;-83